SCC: Watkins Glen: Final practice times

Pos Num Class ClsP Team Time Gap To 1st Speed --- --- ----- ---- ------------------------------ ---------- ------- ------- ------- 1. 25 GS 1 Fiorano/C-MAX Racing 2:04.741 ...

Pos Num Class ClsP Team                                 Time     Gap  To 1st   Speed
--- --- ----- ---- ------------------------------ ---------- ------- ------- -------
 1.  25 GS    1    Fiorano/C-MAX Racing             2:04.741                  98.123
 2.  96 GS    2    Turner Motorsport                2:04.803   0.062   0.062  98.075
 3.  26 GS    3    Fiorano/C-MAX Racing             2:05.001   0.198   0.260  97.919
 4.  42 GS    4    TRG                              2:05.012   0.011   0.271  97.911
 5.  55 GS    5    Hyper Sport                      2:05.076   0.064   0.335  97.861
 6.  09 GS    6    Automatic Racing                 2:05.240   0.164   0.499  97.732
 7.  41 GS    7    TRG                              2:05.377   0.137   0.636  97.626
 8.  38 GS    8    BGB Motorsports                  2:05.391   0.014   0.650  97.615
 9.  40 GS    9    TRG                              2:05.692   0.301   0.951  97.381
10.  52 GS    10   Rehagen Racing                   2:05.808   0.116   1.067  97.291
11.  99 GS    11   Automatic Racing                 2:06.258   0.450   1.517  96.944
12.  37 GS    12   JBS Racing                       2:06.267   0.009   1.526  96.937
13.  90 GS    13   Automatic Racing                 2:06.301   0.034   1.560  96.911
14.  97 GS    14   Turner Motorsport                2:06.375   0.074   1.634  96.855
15.  88 GS    15   Ranger Sports Racing             2:06.677   0.302   1.936  96.624
16.  59 GS    16   Rehagen Racing                   2:06.691   0.014   1.950  96.613
17.   5 GS    17   Blackforest Motorsports          2:06.782   0.091   2.041  96.544
18.  49 GS    18   Marcus Motorsports               2:06.925   0.143   2.184  96.435
19.  87 GS    19   Ranger Sports Racing             2:06.958   0.033   2.217  96.410
20.  07 GS    20   Cardiosport Racing               2:07.032   0.074   2.291  96.354
21.  91 GS    21   Automatic Racing                 2:07.073   0.041   2.332  96.323
22. 137 GS    22   JBS Motorsports                  2:07.075   0.002   2.334  96.321
23.  46 GS    23   Fall-Line Motorsports            2:07.391   0.316   2.650  96.082
24.  79 GS    24   Kinetic Motorsports              2:07.457   0.066   2.716  96.032
25. 154 GS    25   Rehagen Racing                   2:07.525   0.068   2.784  95.981
26.   4 GS    26   Blackforest Motorsports          2:07.711   0.186   2.970  95.841
27.  21 GS    27   Bodymotion Racing                2:07.761   0.050   3.020  95.804
28.  39 GS    28   TRG                              2:07.867   0.106   3.126  95.724
29.  17 GS    29   Team Centurion                   2:08.050   0.183   3.309  95.588
30.  54 GS    30   Hyper Sport                      2:09.580   1.530   4.839  94.459
31.  30 GS    31   Fastmetal Motorsports            2:09.714   0.134   4.973  94.361
32.  89 GS    32   Ranger Sports Racing             2:10.083   0.369   5.342  94.094
33.  47 GS    33   TF Racing                        2:10.606   0.523   5.865  93.717
34.  22 ST    1    HART                             2:11.709   1.103   6.968  92.932
35.   2 GS    34   Blackforest Motorsports          2:11.786   0.077   7.045  92.878
36.  95 ST    2    Turner Motorsport                2:12.050   0.264   7.309  92.692
37. 126 ST    3    Fountain Motorsports             2:12.251   0.201   7.510  92.551
38. 127 ST    4    Fountain Motorsports             2:12.604   0.353   7.863  92.305
39.  29 ST    5    Bill Fenton Motorsports          2:13.394   0.790   8.653  91.758
40.  86 ST    6    Classic BMW - Plano              2:13.467   0.073   8.726  91.708
41.  31 ST    7    i-MOTO Racing                    2:13.505   0.038   8.764  91.682
42.  27 ST    8    Bill Fenton Motorsports          2:13.802   0.297   9.061  91.478
43. 174 ST    9    LRT Racing                       2:13.964   0.162   9.223  91.368
44. 125 ST    10   Fountain Motorsports             2:14.638   0.674   9.897  90.910
45. 197 ST    11   RSR Motorsports                  2:15.779   1.141  11.038  90.146
46.  64 ST    12   T Giovanis Motorsport            2:16.358   0.579  11.617  89.764
47.  56 ST    13   BSI Racing                       2:16.644   0.286  11.903  89.576
48.  58 ST    14   BSI Racing                       2:18.003   1.359  13.262  88.694
49.  02 ST    15   Blackforest Motorsports          2:20.209   2.206  15.468  87.298
50.  83 GS    35   BGB Motorsports                  2:21.539   1.330  16.798  86.478
51. 198 ST    16   RSR Motorsports                  2:23.502   1.963  18.761  85.295
52.  73 ST    17   SDS Performance Group            2:25.689   2.187  20.948  84.015
53.  13 ST    18   SDS Performance Racing           2:25.695   0.006  20.954  84.011
54.  74 ST    19   Kensai Racing                    2:35.634   9.939  30.893  78.646
55.  28 GS    36   Fall-Line Motorsports             No Time
56.  43 GS    37   ASC Motorsports                   No Time
57.  69 ST    20   SpeedSource                       No Time
58.  75 ST    21   Kensai Racing                     No Time
59.  76 ST    22   Kensai Racing                     No Time

Be part of something big

Write a comment
Show comments
About this article
Series Grand-Am
Drivers Bill Fenton
Teams Kinetic Motorsports , Rehagen Racing , Turner Motorsport , Automatic Racing , LRT Racing , HART , Fall-Line Motorsports , Bodymotion Racing , SpeedSource